createdAt,value
2022-09-27T00:00:06.989Z,99218.00
2022-09-27T00:02:38.411Z,99216.31
2022-09-27T00:05:05.026Z,99217.78
2022-09-27T00:07:31.437Z,99211.56
2022-09-27T00:09:57.807Z,99208.94
2022-09-27T00:12:24.651Z,99204.84
2022-09-27T00:14:51.050Z,99201.22
2022-09-27T00:17:17.450Z,99202.56
2022-09-27T00:19:43.849Z,99197.91
2022-09-27T00:22:10.250Z,99201.13
2022-09-27T00:24:36.610Z,99197.28
2022-09-27T00:27:03.005Z,99196.88
2022-09-27T00:29:29.459Z,99196.03
2022-09-27T00:31:56.259Z,99200.63
2022-09-27T00:34:24.836Z,99196.03
2022-09-27T00:36:52.186Z,99187.97
2022-09-27T00:39:19.054Z,99193.03
2022-09-27T00:41:45.861Z,99184.81
2022-09-27T00:44:33.688Z,99178.94
2022-09-27T00:47:04.019Z,99180.84
2022-09-27T00:49:35.709Z,99175.56
2022-09-27T00:52:05.459Z,99165.63
2022-09-27T00:54:35.694Z,99168.63
2022-09-27T00:57:03.421Z,99155.97
2022-09-27T00:59:35.769Z,99156.25
2022-09-27T01:02:05.153Z,99154.66
2022-09-27T01:04:32.720Z,99155.75
2022-09-27T01:06:59.850Z,99147.13
2022-09-27T01:09:26.954Z,99145.16
2022-09-27T01:12:22.948Z,99141.63
2022-09-27T01:15:16.979Z,99135.59
2022-09-27T01:18:00.865Z,99134.22
2022-09-27T01:21:09.588Z,99139.38
2022-09-27T01:23:54.140Z,99131.84
2022-09-27T01:26:46.029Z,99127.75
2022-09-27T01:29:44.240Z,99119.03
2022-09-27T01:32:22.927Z,99116.44
2022-09-27T01:35:01.623Z,99115.09
2022-09-27T01:37:53.396Z,99113.50
2022-09-27T01:40:28.671Z,99117.75
2022-09-27T01:43:29.639Z,99104.66
2022-09-27T01:46:08.008Z,99100.44
2022-09-27T01:48:58.326Z,99103.97
2022-09-27T01:51:37.468Z,99087.13
2022-09-27T01:54:07.560Z,99097.75
2022-09-27T01:57:01.180Z,99084.63
2022-09-27T01:59:41.848Z,99082.72
2022-09-27T02:02:26.822Z,99074.75
2022-09-27T02:05:26.922Z,99080.72
2022-09-27T02:08:01.985Z,99075.16
2022-09-27T02:10:40.661Z,99066.44
2022-09-27T02:13:21.102Z,99068.75
2022-09-27T02:16:32.129Z,99066.78
2022-09-27T02:19:10.320Z,99060.72
2022-09-27T02:21:59.800Z,99058.72
2022-09-27T02:24:38.614Z,99052.84
2022-09-27T02:27:21.265Z,99050.03
2022-09-27T02:29:56.495Z,99048.06
2022-09-27T02:32:22.924Z,99041.38
2022-09-27T02:34:50.711Z,99043.31
2022-09-27T02:37:17.769Z,99044.41
2022-09-27T02:39:44.311Z,99043.09
2022-09-27T02:42:10.954Z,99035.84
2022-09-27T02:44:39.504Z,99034.59
2022-09-27T02:47:36.471Z,99028.28
2022-09-27T02:50:49.358Z,99032.41
2022-09-27T02:53:36.579Z,99036.47
2022-09-27T02:56:47.499Z,99034.94
2022-09-27T03:00:00.476Z,99033.66
2022-09-27T03:02:53.272Z,99030.34
2022-09-27T03:05:48.415Z,99025.22
2022-09-27T03:08:16.661Z,99025.78
2022-09-27T03:10:43.083Z,99029.31
2022-09-27T03:13:09.684Z,99020.41
2022-09-27T03:15:36.091Z,99020.06
2022-09-27T03:18:03.040Z,99015.16
2022-09-27T03:20:41.479Z,99022.31
2022-09-27T03:23:10.010Z,99016.19
2022-09-27T03:25:36.399Z,99006.16
2022-09-27T03:28:03.693Z,99009.41
2022-09-27T03:30:30.725Z,99012.69
2022-09-27T03:32:57.953Z,99011.88
2022-09-27T03:35:44.953Z,99008.47
2022-09-27T03:38:12.665Z,98998.53
2022-09-27T03:40:39.720Z,99008.41
2022-09-27T03:43:07.343Z,98998.19
2022-09-27T03:45:33.952Z,98993.66
2022-09-27T03:48:04.503Z,98994.06
2022-09-27T03:50:30.948Z,98994.22
2022-09-27T03:52:57.350Z,98990.81
2022-09-27T03:55:24.594Z,98988.88
2022-09-27T03:57:51.040Z,98987.31
2022-09-27T04:00:18.487Z,98982.16
2022-09-27T04:02:45.405Z,98983.22
2022-09-27T04:05:25.620Z,98984.69
2022-09-27T04:08:10.910Z,98974.41
2022-09-27T04:10:38.079Z,98974.09
2022-09-27T04:13:05.408Z,98966.97
2022-09-27T04:15:39.417Z,98969.78
2022-09-27T04:18:24.167Z,98963.03
2022-09-27T04:21:18.070Z,98956.91
2022-09-27T04:23:50.064Z,98961.94
2022-09-27T04:26:21.016Z,98970.59
2022-09-27T04:28:54.567Z,98965.56
2022-09-27T04:31:21.393Z,98961.75
2022-09-27T04:33:59.793Z,98964.66
2022-09-27T04:36:31.785Z,98965.53
2022-09-27T04:39:05.989Z,98969.94
2022-09-27T04:41:35.999Z,98962.16
2022-09-27T04:44:03.273Z,98960.63
2022-09-27T04:46:34.615Z,98974.66
2022-09-27T04:49:02.182Z,98972.53
2022-09-27T04:51:30.496Z,98968.31
2022-09-27T04:53:58.110Z,98975.34
2022-09-27T04:56:30.904Z,98973.03
2022-09-27T04:58:58.731Z,98970.22
2022-09-27T05:01:25.251Z,98972.06
2022-09-27T05:04:10.223Z,98962.53
2022-09-27T05:06:39.506Z,98965.16
2022-09-27T05:09:15.520Z,98964.91
2022-09-27T05:11:48.755Z,98969.38
2022-09-27T05:14:33.620Z,98971.38
2022-09-27T05:17:15.148Z,98968.56
2022-09-27T05:20:14.087Z,98965.09
2022-09-27T05:22:51.839Z,98969.53
2022-09-27T05:25:18.598Z,98971.66
2022-09-27T05:27:45.368Z,98965.84
2022-09-27T05:30:12.704Z,98967.84
2022-09-27T05:32:50.018Z,98971.13
2022-09-27T05:35:26.154Z,98968.94
2022-09-27T05:37:54.659Z,98968.59
2022-09-27T05:40:40.092Z,98965.84
2022-09-27T05:43:07.071Z,98962.53
2022-09-27T05:45:34.069Z,98970.31
2022-09-27T05:48:03.235Z,98963.81
2022-09-27T05:50:31.419Z,98962.44
2022-09-27T05:52:57.917Z,98968.84
2022-09-27T05:55:24.346Z,98964.13
2022-09-27T05:58:00.479Z,98969.50
2022-09-27T06:00:38.579Z,98959.69
2022-09-27T06:03:19.620Z,98963.41
2022-09-27T06:06:11.887Z,98963.19
2022-09-27T06:08:45.763Z,98960.19
2022-09-27T06:11:15.677Z,98964.94
2022-09-27T06:13:42.319Z,98968.00
2022-09-27T06:16:11.980Z,98959.81
2022-09-27T06:18:40.463Z,98964.81
2022-09-27T06:21:06.942Z,98962.03
2022-09-27T06:23:34.358Z,98951.53
2022-09-27T06:26:09.935Z,98963.94
2022-09-27T06:28:41.111Z,98960.19
2022-09-27T06:31:08.988Z,98958.44
2022-09-27T06:33:46.135Z,98965.84
2022-09-27T06:36:13.570Z,98961.63
2022-09-27T06:38:41.095Z,98963.44
2022-09-27T06:41:37.398Z,98964.06
2022-09-27T06:44:29.966Z,98959.00
2022-09-27T06:47:17.273Z,98959.00
2022-09-27T06:49:53.146Z,98956.13
2022-09-27T06:52:19.569Z,98954.28
2022-09-27T06:54:46.732Z,98962.16
2022-09-27T06:57:33.119Z,98966.25
2022-09-27T07:00:18.266Z,98965.03
2022-09-27T07:03:03.178Z,98968.09
2022-09-27T07:05:57.199Z,98971.59
2022-09-27T07:08:39.986Z,98961.47
2022-09-27T07:11:07.522Z,98964.63
2022-09-27T07:13:37.155Z,98967.91
2022-09-27T07:16:03.644Z,98968.03
2022-09-27T07:18:30.341Z,98973.69
2022-09-27T07:21:00.735Z,98972.88
2022-09-27T07:23:27.475Z,98975.34
2022-09-27T07:25:54.756Z,98968.84
2022-09-27T07:28:22.401Z,98964.38
2022-09-27T07:30:49.845Z,98967.47
2022-09-27T07:33:16.325Z,98969.31
2022-09-27T07:35:43.745Z,98969.16
2022-09-27T07:38:13.179Z,98966.53
2022-09-27T07:40:40.792Z,98970.47
2022-09-27T07:43:09.371Z,98975.53
2022-09-27T07:45:36.771Z,98980.59
2022-09-27T07:48:07.346Z,98968.84
2022-09-27T07:50:53.131Z,98968.84
2022-09-27T07:53:38.850Z,98974.56
2022-09-27T07:56:30.437Z,98969.66
2022-09-27T07:58:57.269Z,98977.03
2022-09-27T08:01:23.799Z,98974.00
2022-09-27T08:03:51.664Z,98979.22
2022-09-27T08:06:19.084Z,98977.66
2022-09-27T08:08:47.366Z,98982.41
2022-09-27T08:11:15.499Z,98983.22
2022-09-27T08:13:43.347Z,98988.00
2022-09-27T08:16:11.209Z,98981.00
2022-09-27T08:19:06.463Z,98993.06
2022-09-27T08:21:58.733Z,98990.94
2022-09-27T08:24:29.240Z,98989.22
2022-09-27T08:27:11.493Z,98985.59
2022-09-27T08:29:50.661Z,98991.53
2022-09-27T08:32:22.166Z,98990.25
2022-09-27T08:34:49.372Z,98992.16
2022-09-27T08:37:15.847Z,98987.13
2022-09-27T08:39:46.868Z,98988.53
2022-09-27T08:42:46.579Z,98983.13
2022-09-27T08:45:22.605Z,98985.16
2022-09-27T08:47:55.068Z,98994.50
2022-09-27T08:50:39.993Z,98987.25
2022-09-27T08:53:23.538Z,98998.38
2022-09-27T08:55:56.783Z,98996.03
2022-09-27T08:58:39.366Z,98987.06
2022-09-27T09:01:15.846Z,98992.41
2022-09-27T09:03:55.537Z,98993.59
2022-09-27T09:06:34.650Z,98989.97
2022-09-27T09:09:20.367Z,98991.16
2022-09-27T09:12:56.987Z,98991.16
2022-09-27T09:15:58.096Z,98988.34
2022-09-27T09:19:01.231Z,98982.75
2022-09-27T09:22:11.502Z,98991.28
2022-09-27T09:25:15.452Z,98990.00
2022-09-27T09:28:04.323Z,98988.63
2022-09-27T09:30:44.365Z,98996.72
2022-09-27T09:33:31.988Z,98991.16
2022-09-27T09:36:05.276Z,98990.47
2022-09-27T09:38:34.696Z,98985.69
2022-09-27T09:41:26.126Z,98997.66
2022-09-27T09:44:07.821Z,98990.00
2022-09-27T09:46:45.938Z,99001.41
2022-09-27T09:49:24.211Z,98995.66
2022-09-27T09:51:59.732Z,98994.69
2022-09-27T09:54:34.968Z,98991.53
2022-09-27T09:57:10.557Z,98991.41
2022-09-27T09:59:45.286Z,98985.09
2022-09-27T10:02:37.211Z,98985.78
2022-09-27T10:05:19.902Z,98979.84
2022-09-27T10:07:50.692Z,98980.63
2022-09-27T10:10:20.099Z,98971.72
2022-09-27T10:13:22.526Z,98969.13
2022-09-27T10:16:02.442Z,98965.81
2022-09-27T10:18:29.682Z,98971.94
2022-09-27T10:21:00.000Z,98972.50
2022-09-27T10:23:26.548Z,98973.94
2022-09-27T10:26:11.069Z,98972.41
2022-09-27T10:28:47.363Z,98968.22
2022-09-27T10:31:20.346Z,98969.72
2022-09-27T10:34:34.377Z,98974.31
2022-09-27T10:37:06.705Z,98977.56
2022-09-27T10:39:33.966Z,98976.03
2022-09-27T10:42:00.512Z,98975.53
2022-09-27T10:44:40.004Z,98971.13
2022-09-27T10:47:22.879Z,98969.91
2022-09-27T10:50:03.635Z,98963.91
2022-09-27T10:52:42.890Z,98975.53
2022-09-27T10:55:24.269Z,98972.47
2022-09-27T10:57:55.095Z,98971.94
2022-09-27T11:00:25.831Z,98968.25
2022-09-27T11:03:03.177Z,98967.81
2022-09-27T11:05:39.463Z,98971.03
2022-09-27T11:08:18.218Z,98970.41
2022-09-27T11:11:06.883Z,98967.34
2022-09-27T11:13:36.290Z,98970.63
2022-09-27T11:16:21.105Z,98970.41
2022-09-27T11:19:21.865Z,98991.63
2022-09-27T11:21:56.243Z,98999.97
2022-09-27T11:24:37.848Z,99011.28
2022-09-27T11:27:26.300Z,99014.59
2022-09-27T11:30:04.919Z,99032.56
2022-09-27T11:33:05.366Z,99030.28
2022-09-27T11:35:58.942Z,99031.78
2022-09-27T11:38:58.162Z,99022.34
2022-09-27T11:41:55.903Z,99026.44
2022-09-27T11:44:46.250Z,99020.13
2022-09-27T11:47:20.397Z,99025.25
2022-09-27T11:50:19.279Z,99027.00
2022-09-27T11:53:17.983Z,99023.03
2022-09-27T11:56:05.577Z,99026.94
2022-09-27T11:59:05.118Z,99027.94
2022-09-27T12:01:57.224Z,99029.34
2022-09-27T12:05:20.495Z,99027.31
2022-09-27T12:08:18.135Z,99029.06
2022-09-27T12:10:50.736Z,99031.63
2022-09-27T12:13:25.524Z,99037.78
2022-09-27T12:15:52.341Z,99038.75
2022-09-27T12:18:37.995Z,99028.53
2022-09-27T12:21:10.340Z,99033.19
2022-09-27T12:23:42.175Z,99030.44
2022-09-27T12:26:37.500Z,99037.16
2022-09-27T12:29:30.414Z,99033.06
2022-09-27T12:32:22.363Z,99033.94
2022-09-27T12:35:18.638Z,99041.31
2022-09-27T12:37:57.707Z,99040.47
2022-09-27T12:40:35.045Z,99043.50
2022-09-27T12:43:16.812Z,99034.94
2022-09-27T12:46:40.419Z,99032.06
2022-09-27T12:49:38.491Z,99038.03
2022-09-27T12:52:11.937Z,99036.88
2022-09-27T12:55:05.087Z,99041.56
2022-09-27T12:57:51.746Z,99045.06
2022-09-27T13:00:25.876Z,99045.31
2022-09-27T13:03:26.528Z,99035.31
2022-09-27T13:06:31.741Z,99038.16
2022-09-27T13:09:25.257Z,99042.16
2022-09-27T13:12:03.956Z,99042.63
2022-09-27T13:14:35.581Z,99046.97
2022-09-27T13:17:02.120Z,99050.59
2022-09-27T13:19:42.599Z,99050.47
2022-09-27T13:22:36.612Z,99063.13
2022-09-27T13:25:51.789Z,99059.25
2022-09-27T13:28:29.266Z,99052.84
2022-09-27T13:30:58.451Z,99060.78
2022-09-27T13:33:49.705Z,99061.00
2022-09-27T13:36:24.501Z,99067.75
2022-09-27T13:39:04.374Z,99070.88
2022-09-27T13:41:44.581Z,99060.72
2022-09-27T13:44:38.878Z,99061.75
2022-09-27T13:47:26.090Z,99071.16
2022-09-27T13:50:12.698Z,99072.22
2022-09-27T13:52:58.725Z,99086.13
2022-09-27T13:55:47.670Z,99094.88
2022-09-27T13:58:33.956Z,99094.47
2022-09-27T14:01:26.069Z,99095.19
2022-09-27T14:03:55.823Z,99093.22
2022-09-27T14:06:30.386Z,99093.44
2022-09-27T14:09:01.594Z,99087.63
2022-09-27T14:11:33.586Z,99092.94
2022-09-27T14:14:02.143Z,99091.22
2022-09-27T14:16:40.622Z,99087.91
2022-09-27T14:19:16.233Z,99095.53
2022-09-27T14:21:43.933Z,99093.69
2022-09-27T14:24:23.669Z,99104.09
2022-09-27T14:27:02.908Z,99106.66
2022-09-27T14:29:32.606Z,99097.25
2022-09-27T14:32:13.734Z,99101.66
2022-09-27T14:35:34.958Z,99108.94
2022-09-27T14:38:20.791Z,99101.66
2022-09-27T14:40:59.707Z,99102.50
2022-09-27T14:43:27.268Z,99103.28
2022-09-27T14:45:59.706Z,99112.59
2022-09-27T14:48:35.702Z,99117.44
2022-09-27T14:51:15.083Z,99112.88
2022-09-27T14:54:05.506Z,99111.91
2022-09-27T14:56:34.857Z,99124.25
2022-09-27T14:59:06.513Z,99125.97
2022-09-27T15:01:35.024Z,99126.38
2022-09-27T15:04:13.585Z,99129.06
2022-09-27T15:06:40.787Z,99141.22
2022-09-27T15:09:10.112Z,99140.00
2022-09-27T15:11:37.211Z,99138.72
2022-09-27T15:14:04.993Z,99145.63
2022-09-27T15:16:31.768Z,99143.03
2022-09-27T15:19:05.630Z,99146.47
2022-09-27T15:21:35.014Z,99152.06
2022-09-27T15:24:02.725Z,99155.88
2022-09-27T15:26:44.308Z,99150.25
2022-09-27T15:29:22.664Z,99159.25
2022-09-27T15:32:06.841Z,99160.63
2022-09-27T15:34:34.719Z,99166.81
2022-09-27T15:37:06.553Z,99177.91
2022-09-27T15:39:36.219Z,99183.78
2022-09-27T15:42:12.571Z,99192.56
2022-09-27T15:44:55.847Z,99192.41
2022-09-27T15:47:34.521Z,99185.78
2022-09-27T15:50:26.939Z,99181.81
2022-09-27T15:52:57.111Z,99172.53
2022-09-27T15:55:26.636Z,99168.44
2022-09-27T15:57:59.340Z,99168.25
2022-09-27T16:00:26.593Z,99170.06
2022-09-27T16:02:53.942Z,99175.38
2022-09-27T16:05:20.703Z,99178.63
2022-09-27T16:07:47.091Z,99182.06
2022-09-27T16:10:18.911Z,99177.25
2022-09-27T16:12:45.772Z,99183.09
2022-09-27T16:15:14.219Z,99185.03
2022-09-27T16:17:42.632Z,99192.16
2022-09-27T16:20:19.572Z,99189.34
2022-09-27T16:22:45.986Z,99196.72
2022-09-27T16:25:12.692Z,99192.75
2022-09-27T16:27:39.304Z,99192.59
2022-09-27T16:30:06.206Z,99214.19
2022-09-27T16:32:32.700Z,99215.03
2022-09-27T16:34:59.138Z,99215.25
2022-09-27T16:37:25.702Z,99215.44
2022-09-27T16:39:52.079Z,99221.53
2022-09-27T16:42:18.462Z,99222.34
2022-09-27T16:44:44.839Z,99220.38
2022-09-27T16:47:11.288Z,99222.22
2022-09-27T16:49:56.275Z,99218.75
2022-09-27T16:52:22.649Z,99224.34
2022-09-27T16:54:49.010Z,99230.13
2022-09-27T16:57:15.384Z,99224.88
2022-09-27T16:59:41.778Z,99224.53
2022-09-27T17:02:09.437Z,99228.81
2022-09-27T17:04:35.886Z,99223.22
2022-09-27T17:07:02.258Z,99216.56
2022-09-27T17:09:28.655Z,99218.75
2022-09-27T17:11:56.265Z,99217.94
2022-09-27T17:14:22.664Z,99220.44
2022-09-27T17:16:49.396Z,99223.72
2022-09-27T17:19:18.182Z,99226.25
2022-09-27T17:21:45.142Z,99227.72
2022-09-27T17:24:11.789Z,99228.38
2022-09-27T17:26:38.320Z,99234.63
2022-09-27T17:29:04.711Z,99231.31
2022-09-27T17:31:33.380Z,99235.75
2022-09-27T17:34:00.615Z,99240.41
2022-09-27T17:36:29.955Z,99244.19
2022-09-27T17:38:58.585Z,99255.09
2022-09-27T17:41:26.480Z,99244.84
2022-09-27T17:43:55.166Z,99251.94
2022-09-27T17:46:23.553Z,99256.88
2022-09-27T17:49:09.174Z,99251.63
2022-09-27T17:51:38.593Z,99249.81
2022-09-27T17:54:07.275Z,99258.22
2022-09-27T17:56:37.577Z,99251.81
2022-09-27T17:59:04.670Z,99252.78
2022-09-27T18:01:31.282Z,99253.63
2022-09-27T18:04:00.538Z,99259.41
2022-09-27T18:06:28.321Z,99254.28
2022-09-27T18:08:55.874Z,99261.84
2022-09-27T18:11:28.376Z,99260.38
2022-09-27T18:14:02.289Z,99258.41
2022-09-27T18:16:32.330Z,99259.72
2022-09-27T18:19:00.358Z,99271.72
2022-09-27T18:21:27.921Z,99269.75
2022-09-27T18:23:59.561Z,99277.63
2022-09-27T18:26:28.888Z,99274.69
2022-09-27T18:28:59.785Z,99285.72
2022-09-27T18:31:26.268Z,99277.78
2022-09-27T18:33:52.994Z,99286.88
2022-09-27T18:36:22.010Z,99286.19
2022-09-27T18:38:53.958Z,99287.53
2022-09-27T18:41:22.011Z,99291.13
2022-09-27T18:43:48.722Z,99293.13
2022-09-27T18:46:35.206Z,99286.84
2022-09-27T18:49:03.991Z,99300.53
2022-09-27T18:51:30.908Z,99296.25
2022-09-27T18:54:00.315Z,99300.50
2022-09-27T18:56:27.591Z,99304.28
2022-09-27T18:58:54.324Z,99300.47
2022-09-27T19:01:22.138Z,99299.00
2022-09-27T19:03:48.808Z,99299.00
2022-09-27T19:06:23.332Z,99302.81
2022-09-27T19:08:58.584Z,99287.28
2022-09-27T19:11:26.711Z,99297.50
2022-09-27T19:13:55.243Z,99293.75
2022-09-27T19:16:22.917Z,99293.75
2022-09-27T19:18:49.835Z,99293.25
2022-09-27T19:21:19.627Z,99289.78
2022-09-27T19:23:46.232Z,99296.03
2022-09-27T19:26:15.440Z,99296.84
2022-09-27T19:28:43.531Z,99296.16
2022-09-27T19:31:16.572Z,99295.81
2022-09-27T19:33:43.705Z,99293.00
2022-09-27T19:36:12.837Z,99294.66
2022-09-27T19:38:39.419Z,99301.06
2022-09-27T19:41:07.961Z,99297.09
2022-09-27T19:43:34.647Z,99298.25
2022-09-27T19:46:05.819Z,99299.72
2022-09-27T19:48:32.690Z,99294.13
2022-09-27T19:51:00.360Z,99299.97
2022-09-27T19:53:31.885Z,99295.06
2022-09-27T19:56:04.370Z,99297.69
2022-09-27T19:58:31.870Z,99302.31
2022-09-27T20:01:03.579Z,99297.06
2022-09-27T20:03:30.332Z,99300.66
2022-09-27T20:05:58.638Z,99300.03
2022-09-27T20:08:26.575Z,99298.19
2022-09-27T20:11:06.150Z,99299.03
2022-09-27T20:13:34.299Z,99302.50
2022-09-27T20:16:03.472Z,99303.44
2022-09-27T20:18:30.272Z,99311.00
2022-09-27T20:21:02.080Z,99301.63
2022-09-27T20:23:29.842Z,99301.75
2022-09-27T20:26:04.004Z,99304.72
2022-09-27T20:28:30.445Z,99300.78
2022-09-27T20:31:01.828Z,99298.09
2022-09-27T20:33:46.739Z,99311.72
2022-09-27T20:36:20.668Z,99302.06
2022-09-27T20:39:02.846Z,99305.84
2022-09-27T20:41:32.115Z,99302.22
2022-09-27T20:44:01.684Z,99306.75
2022-09-27T20:46:28.123Z,99301.44
2022-09-27T20:48:57.034Z,99310.66
2022-09-27T20:51:24.097Z,99300.28
2022-09-27T20:53:51.474Z,99301.72
2022-09-27T20:56:35.488Z,99295.81
2022-09-27T20:59:05.837Z,99301.38
2022-09-27T21:01:33.069Z,99296.69
2022-09-27T21:04:01.602Z,99299.44
2022-09-27T21:06:30.333Z,99297.94
2022-09-27T21:08:57.961Z,99296.25
2022-09-27T21:11:25.441Z,99303.19
2022-09-27T21:13:53.328Z,99309.28
2022-09-27T21:16:21.954Z,99313.59
2022-09-27T21:18:50.840Z,99315.56
2022-09-27T21:21:18.122Z,99319.69
2022-09-27T21:23:45.909Z,99319.06
2022-09-27T21:26:17.444Z,99312.94
2022-09-27T21:28:48.838Z,99319.06
2022-09-27T21:31:22.265Z,99319.16
2022-09-27T21:33:54.029Z,99318.47
2022-09-27T21:36:24.706Z,99319.28
2022-09-27T21:38:51.166Z,99324.69
2022-09-27T21:41:18.277Z,99323.69
2022-09-27T21:43:46.809Z,99325.34
2022-09-27T21:46:17.513Z,99320.09
2022-09-27T21:48:46.216Z,99327.75
2022-09-27T21:51:14.122Z,99330.38
2022-09-27T21:53:42.522Z,99327.44
2022-09-27T21:56:10.599Z,99324.78
2022-09-27T21:58:39.826Z,99327.13
2022-09-27T22:01:18.335Z,99324.91
2022-09-27T22:03:46.509Z,99330.19
2022-09-27T22:06:15.587Z,99334.31
2022-09-27T22:08:42.672Z,99326.50
2022-09-27T22:11:12.421Z,99336.91
2022-09-27T22:13:38.843Z,99328.63
2022-09-27T22:16:07.337Z,99328.47
2022-09-27T22:18:35.329Z,99330.44
2022-09-27T22:21:13.323Z,99327.00
2022-09-27T22:23:40.061Z,99326.81
2022-09-27T22:26:20.885Z,99326.75
2022-09-27T22:28:47.621Z,99332.75
2022-09-27T22:31:15.702Z,99321.78
2022-09-27T22:33:42.806Z,99327.88
2022-09-27T22:36:09.339Z,99321.34
2022-09-27T22:38:35.733Z,99321.19
2022-09-27T22:41:02.662Z,99321.19
2022-09-27T22:43:29.443Z,99326.94
2022-09-27T22:45:56.841Z,99317.00
2022-09-27T22:48:23.438Z,99321.34
2022-09-27T22:50:49.814Z,99312.63
2022-09-27T22:53:16.186Z,99317.00
2022-09-27T22:55:42.605Z,99322.88
2022-09-27T22:58:09.419Z,99321.78
2022-09-27T23:00:38.048Z,99316.41
2022-09-27T23:03:04.481Z,99320.03
2022-09-27T23:05:30.868Z,99313.91
2022-09-27T23:07:57.251Z,99314.84
2022-09-27T23:10:23.626Z,99313.91
2022-09-27T23:12:54.645Z,99314.53
2022-09-27T23:15:20.931Z,99308.31
2022-09-27T23:17:51.085Z,99305.75
2022-09-27T23:20:18.455Z,99309.53
2022-09-27T23:22:45.275Z,99313.16
2022-09-27T23:25:11.667Z,99311.50
2022-09-27T23:27:47.584Z,99317.16
2022-09-27T23:30:25.832Z,99309.84
2022-09-27T23:32:53.390Z,99313.50
2022-09-27T23:35:19.767Z,99305.16
2022-09-27T23:37:46.154Z,99315.69
2022-09-27T23:40:12.537Z,99314.75
2022-09-27T23:42:38.918Z,99307.88
2022-09-27T23:45:05.706Z,99308.31
2022-09-27T23:47:33.019Z,99306.78
2022-09-27T23:49:59.473Z,99309.59
2022-09-27T23:52:26.326Z,99309.63
2022-09-27T23:54:53.107Z,99312.03
2022-09-27T23:57:19.476Z,99313.78
2022-09-27T23:59:45.854Z,99315.78
